PWSweather.com
Personal Weather Stations
Station Observations
KFLSEBAS1
Sebastian Highlands, Sebastian, FL 32958-4362

Sebastian HighlandsSebastian, FL 32958-4362

Lat: 27.8, Lon: -80.48

Elevation: 23

Station Type: Davis Weather Monitor II

www.kflsebas1.com

High Low Average
Temperature 69.0°F20.6°C 64.1°F17.8°C 66.8°F19.3°C
Dew Point 67.2°F19.6°C 62.0°F16.7°C 64.6°F18.1°C
Winds 12.0 mph 19.3 kmh Calm Calm 3.0 mph E4.8 kmh E
Wind Gusts 16.0 mph25.7 kmh -- 8.0 mph12.9 kmh
Humidity 98% 87% 93%
Pressure 30.27 in1025.1 mb 30.18 in1022.0 mb -
Precipitation 0.00 in0.0 mm - -
Hour Temp Dew Point Humidity Winds Wind Gusts Pressure Precip Precip Rate Daily Precip Total
12:00 AM 65.9°F18.8°C 62.3°F16.8°C 88% Calm Calm -- 30.25 in1024.4 mb 0.00 in0.0 mm 0.00 in0.0 mm 0.00 in0.0 mm
12:05 AM 66.0°F18.9°C 62.0°F16.7°C 87% 6.0 mph E9.7 kmh E 7.0 mph11.3 kmh 30.25 in1024.4 mb 0.00 in0.0 mm 0.00 in0.0 mm 0.00 in0.0 mm
12:10 AM 66.0°F18.9°C 62.0°F16.7°C 87% 1.0 mph NE1.6 kmh NE 7.0 mph11.3 kmh 30.24 in1024.0 mb 0.00 in0.0 mm 0.00 in0.0 mm 0.00 in0.0 mm
12:15 AM 66.1°F18.9°C 62.1°F16.7°C 87% 4.0 mph E6.4 kmh E 7.0 mph11.3 kmh 30.25 in1024.4 mb 0.00 in0.0 mm 0.00 in0.0 mm 0.00 in0.0 mm
12:20 AM 66.1°F18.9°C 62.1°F16.7°C 87% 2.0 mph E3.2 kmh E 7.0 mph11.3 kmh 30.24 in1024.0 mb 0.00 in0.0 mm 0.00 in0.0 mm 0.00 in0.0 mm
12:25 AM 66.1°F18.9°C 62.1°F16.7°C 87% 5.0 mph NE8.0 kmh NE 8.0 mph12.9 kmh 30.24 in1024.0 mb 0.00 in0.0 mm 0.00 in0.0 mm 0.00 in0.0 mm
12:30 AM 66.1°F18.9°C 62.1°F16.7°C 87% Calm Calm 8.0 mph12.9 kmh 30.23 in1023.7 mb 0.00 in0.0 mm 0.00 in0.0 mm 0.00 in0.0 mm
12:35 AM 66.2°F19.0°C 62.2°F16.8°C 87% 1.0 mph E1.6 kmh E 8.0 mph12.9 kmh 30.24 in1024.0 mb 0.00 in0.0 mm 0.00 in0.0 mm 0.00 in0.0 mm
12:40 AM 66.1°F18.9°C 62.1°F16.7°C 87% 7.0 mph E11.3 kmh E 8.0 mph12.9 kmh 30.24 in1024.0 mb 0.00 in0.0 mm 0.00 in0.0 mm 0.00 in0.0 mm
12:45 AM 66.2°F19.0°C 62.2°F16.8°C 87% 3.0 mph NE4.8 kmh NE 8.0 mph12.9 kmh 30.23 in1023.7 mb 0.00 in0.0 mm 0.00 in0.0 mm 0.00 in0.0 mm
12:50 AM 66.1°F18.9°C 62.1°F16.7°C 87% 5.0 mph E8.0 kmh E 8.0 mph12.9 kmh 30.23 in1023.7 mb 0.00 in0.0 mm 0.00 in0.0 mm 0.00 in0.0 mm
12:55 AM 66.1°F18.9°C 62.1°F16.7°C 87% 4.0 mph E6.4 kmh E 8.0 mph12.9 kmh 30.22 in1023.4 mb 0.00 in0.0 mm 0.00 in0.0 mm 0.00 in0.0 mm
01:00 AM 66.1°F18.9°C 62.5°F16.9°C 88% Calm Calm 1.0 mph1.6 kmh 30.22 in1023.4 mb 0.00 in0.0 mm 0.00 in0.0 mm 0.00 in0.0 mm
01:05 AM 66.1°F18.9°C 62.5°F16.9°C 88% Calm Calm 7.0 mph11.3 kmh 30.22 in1023.4 mb 0.00 in0.0 mm 0.00 in0.0 mm 0.00 in0.0 mm
01:10 AM 66.2°F19.0°C 62.6°F17.0°C 88% Calm Calm 8.0 mph12.9 kmh 30.22 in1023.4 mb 0.00 in0.0 mm 0.00 in0.0 mm 0.00 in0.0 mm
01:15 AM 66.2°F19.0°C 62.6°F17.0°C 88% 5.0 mph NE8.0 kmh NE 8.0 mph12.9 kmh 30.22 in1023.4 mb 0.00 in0.0 mm 0.00 in0.0 mm 0.00 in0.0 mm
01:20 AM 66.2°F19.0°C 62.6°F17.0°C 88% 4.0 mph ESE6.4 kmh ESE 8.0 mph12.9 kmh 30.22 in1023.4 mb 0.00 in0.0 mm 0.00 in0.0 mm 0.00 in0.0 mm
01:25 AM 66.2°F19.0°C 62.6°F17.0°C 88% 4.0 mph E6.4 kmh E 8.0 mph12.9 kmh 30.22 in1023.4 mb 0.00 in0.0 mm 0.00 in0.0 mm 0.00 in0.0 mm
01:30 AM 66.2°F19.0°C 62.6°F17.0°C 88% Calm Calm 9.0 mph14.5 kmh 30.21 in1023.0 mb 0.00 in0.0 mm 0.00 in0.0 mm 0.00 in0.0 mm
01:35 AM 66.3°F19.1°C 62.3°F16.8°C 87% 5.0 mph ENE8.0 kmh ENE 9.0 mph14.5 kmh 30.21 in1023.0 mb 0.00 in0.0 mm 0.00 in0.0 mm 0.00 in0.0 mm
01:40 AM 66.4°F19.1°C 62.4°F16.9°C 87% Calm Calm 9.0 mph14.5 kmh 30.21 in1023.0 mb 0.00 in0.0 mm 0.00 in0.0 mm 0.00 in0.0 mm
01:45 AM 66.5°F19.2°C 62.5°F16.9°C 87% Calm Calm 9.0 mph14.5 kmh 30.21 in1023.0 mb 0.00 in0.0 mm 0.00 in0.0 mm 0.00 in0.0 mm
01:50 AM 66.6°F19.2°C 62.6°F17.0°C 87% Calm Calm 9.0 mph14.5 kmh 30.22 in1023.4 mb 0.00 in0.0 mm 0.00 in0.0 mm 0.00 in0.0 mm
01:55 AM 66.6°F19.2°C 62.6°F17.0°C 87% Calm Calm 9.0 mph14.5 kmh 30.21 in1023.0 mb 0.00 in0.0 mm 0.00 in0.0 mm 0.00 in0.0 mm
02:00 AM 66.6°F19.2°C 62.6°F17.0°C 87% Calm Calm -- 30.21 in1023.0 mb 0.00 in0.0 mm 0.00 in0.0 mm 0.00 in0.0 mm
02:05 AM 66.6°F19.2°C 62.6°F17.0°C 87% Calm Calm 8.0 mph12.9 kmh 30.21 in1023.0 mb 0.00 in0.0 mm 0.00 in0.0 mm 0.00 in0.0 mm
02:10 AM 66.7°F19.3°C 62.7°F17.1°C 87% Calm Calm 8.0 mph12.9 kmh 30.21 in1023.0 mb 0.00 in0.0 mm 0.00 in0.0 mm 0.00 in0.0 mm
02:15 AM 66.7°F19.3°C 62.7°F17.1°C 87% 2.0 mph E3.2 kmh E 8.0 mph12.9 kmh 30.20 in1022.7 mb 0.00 in0.0 mm 0.00 in0.0 mm 0.00 in0.0 mm
02:20 AM 66.6°F19.2°C 62.9°F17.2°C 88% 6.0 mph SE9.7 kmh SE 9.0 mph14.5 kmh 30.20 in1022.7 mb 0.01 in0.3 mm 0.12 in3.0 mm 0.01 in0.3 mm
02:25 AM 66.7°F19.3°C 63.0°F17.2°C 88% 4.0 mph ESE6.4 kmh ESE 13.0 mph20.9 kmh 30.20 in1022.7 mb 0.01 in0.3 mm 0.00 in0.0 mm 0.01 in0.3 mm
02:30 AM 66.6°F19.2°C 63.3°F17.4°C 89% 2.0 mph E3.2 kmh E 13.0 mph20.9 kmh 30.20 in1022.7 mb 0.01 in0.3 mm 0.00 in0.0 mm 0.01 in0.3 mm
02:35 AM 66.5°F19.2°C 63.2°F17.3°C 89% 2.0 mph SE3.2 kmh SE 13.0 mph20.9 kmh 30.20 in1022.7 mb 0.01 in0.3 mm 0.00 in0.0 mm 0.01 in0.3 mm
02:40 AM 66.5°F19.2°C 63.5°F17.5°C 90% Calm Calm 13.0 mph20.9 kmh 30.21 in1023.0 mb 0.01 in0.3 mm 0.00 in0.0 mm 0.01 in0.3 mm
02:45 AM 66.4°F19.1°C 63.4°F17.4°C 90% 4.0 mph ESE6.4 kmh ESE 13.0 mph20.9 kmh 30.20 in1022.7 mb 0.01 in0.3 mm 0.00 in0.0 mm 0.01 in0.3 mm
02:50 AM 66.4°F19.1°C 63.4°F17.4°C 90% Calm Calm 13.0 mph20.9 kmh 30.20 in1022.7 mb 0.01 in0.3 mm 0.00 in0.0 mm 0.01 in0.3 mm
02:55 AM 66.3°F19.1°C 63.6°F17.6°C 91% Calm Calm 13.0 mph20.9 kmh 30.20 in1022.7 mb 0.01 in0.3 mm 0.00 in0.0 mm 0.01 in0.3 mm
03:00 AM 66.3°F19.1°C 63.6°F17.6°C 91% Calm Calm -- 30.20 in1022.7 mb 0.01 in0.3 mm 0.00 in0.0 mm 0.01 in0.3 mm
03:05 AM 66.2°F19.0°C 63.5°F17.5°C 91% Calm Calm -- 30.20 in1022.7 mb 0.01 in0.3 mm 0.00 in0.0 mm 0.01 in0.3 mm
03:10 AM 66.1°F18.9°C 63.4°F17.4°C 91% Calm Calm -- 30.19 in1022.4 mb 0.01 in0.3 mm 0.00 in0.0 mm 0.01 in0.3 mm
03:15 AM 66.0°F18.9°C 63.3°F17.4°C 91% Calm Calm 6.0 mph9.7 kmh 30.20 in1022.7 mb 0.01 in0.3 mm 0.00 in0.0 mm 0.01 in0.3 mm
03:20 AM 66.0°F18.9°C 63.6°F17.6°C 92% Calm Calm 6.0 mph9.7 kmh 30.20 in1022.7 mb 0.01 in0.3 mm 0.00 in0.0 mm 0.01 in0.3 mm
03:25 AM 65.9°F18.8°C 63.2°F17.3°C 91% 4.0 mph ESE6.4 kmh ESE 6.0 mph9.7 kmh 30.20 in1022.7 mb 0.01 in0.3 mm 0.00 in0.0 mm 0.01 in0.3 mm
03:30 AM 66.0°F18.9°C 63.6°F17.6°C 92% 7.0 mph E11.3 kmh E 9.0 mph14.5 kmh 30.20 in1022.7 mb 0.01 in0.3 mm 0.00 in0.0 mm 0.01 in0.3 mm
03:35 AM 66.0°F18.9°C 63.6°F17.6°C 92% 4.0 mph E6.4 kmh E 11.0 mph17.7 kmh 30.20 in1022.7 mb 0.01 in0.3 mm 0.00 in0.0 mm 0.01 in0.3 mm
03:40 AM 66.0°F18.9°C 63.6°F17.6°C 92% 2.0 mph ESE3.2 kmh ESE 11.0 mph17.7 kmh 30.20 in1022.7 mb 0.01 in0.3 mm 0.00 in0.0 mm 0.01 in0.3 mm
03:45 AM 66.1°F18.9°C 63.7°F17.6°C 92% 4.0 mph ESE6.4 kmh ESE 11.0 mph17.7 kmh 30.20 in1022.7 mb 0.01 in0.3 mm 0.00 in0.0 mm 0.01 in0.3 mm
03:50 AM 66.1°F18.9°C 63.7°F17.6°C 92% 5.0 mph ESE8.0 kmh ESE 11.0 mph17.7 kmh 30.20 in1022.7 mb 0.01 in0.3 mm 0.00 in0.0 mm 0.01 in0.3 mm
03:55 AM 66.0°F18.9°C 63.6°F17.6°C 92% Calm Calm 11.0 mph17.7 kmh 30.20 in1022.7 mb 0.01 in0.3 mm 0.00 in0.0 mm 0.01 in0.3 mm
04:00 AM 66.0°F18.9°C 63.6°F17.6°C 92% 7.0 mph ESE11.3 kmh ESE 8.0 mph12.9 kmh 30.20 in1022.7 mb 0.00 in0.0 mm 0.00 in0.0 mm 0.01 in0.3 mm
04:05 AM 66.0°F18.9°C 63.6°F17.6°C 92% 3.0 mph ESE4.8 kmh ESE 8.0 mph12.9 kmh 30.20 in1022.7 mb 0.01 in0.3 mm 0.12 in3.0 mm 0.02 in0.5 mm
04:10 AM 66.0°F18.9°C 63.6°F17.6°C 92% 3.0 mph ESE4.8 kmh ESE 8.0 mph12.9 kmh 30.20 in1022.7 mb 0.01 in0.3 mm 0.00 in0.0 mm 0.02 in0.5 mm
04:15 AM 66.0°F18.9°C 63.9°F17.7°C 93% 6.0 mph ESE9.7 kmh ESE 8.0 mph12.9 kmh 30.20 in1022.7 mb 0.01 in0.3 mm 0.00 in0.0 mm 0.02 in0.5 mm
04:20 AM 66.1°F18.9°C 64.0°F17.8°C 93% 2.0 mph SE3.2 kmh SE 8.0 mph12.9 kmh 30.20 in1022.7 mb 0.03 in0.8 mm 0.24 in6.1 mm 0.04 in1.0 mm
04:25 AM 66.1°F18.9°C 64.0°F17.8°C 93% 10.0 mph E16.1 kmh E 11.0 mph17.7 kmh 30.20 in1022.7 mb 0.03 in0.8 mm 0.00 in0.0 mm 0.04 in1.0 mm
04:30 AM 66.1°F18.9°C 64.0°F17.8°C 93% 6.0 mph ESE9.7 kmh ESE 11.0 mph17.7 kmh 30.19 in1022.4 mb 0.03 in0.8 mm 0.00 in0.0 mm 0.04 in1.0 mm
04:35 AM 66.0°F18.9°C 63.9°F17.7°C 93% Calm Calm 11.0 mph17.7 kmh 30.20 in1022.7 mb 0.04 in1.0 mm 0.12 in3.0 mm 0.05 in1.3 mm
04:40 AM 65.9°F18.8°C 63.8°F17.7°C 93% Calm Calm 11.0 mph17.7 kmh 30.20 in1022.7 mb 0.04 in1.0 mm 0.00 in0.0 mm 0.05 in1.3 mm
04:45 AM 65.8°F18.8°C 63.7°F17.6°C 93% 6.0 mph E9.7 kmh E 11.0 mph17.7 kmh 30.19 in1022.4 mb 0.04 in1.0 mm 0.00 in0.0 mm 0.05 in1.3 mm
04:50 AM 65.7°F18.7°C 63.6°F17.6°C 93% Calm Calm 11.0 mph17.7 kmh 30.19 in1022.4 mb 0.04 in1.0 mm 0.00 in0.0 mm 0.05 in1.3 mm
04:55 AM 65.6°F18.7°C 63.8°F17.7°C 94% Calm Calm 11.0 mph17.7 kmh 30.20 in1022.7 mb 0.04 in1.0 mm 0.00 in0.0 mm 0.05 in1.3 mm
05:00 AM 65.5°F18.6°C 63.7°F17.6°C 94% Calm Calm -- 30.19 in1022.4 mb 0.04 in1.0 mm 0.00 in0.0 mm 0.05 in1.3 mm
05:05 AM 65.5°F18.6°C 63.7°F17.6°C 94% Calm Calm -- 30.20 in1022.7 mb 0.04 in1.0 mm 0.00 in0.0 mm 0.05 in1.3 mm
05:10 AM 65.4°F18.6°C 63.6°F17.6°C 94% Calm Calm -- 30.20 in1022.7 mb 0.04 in1.0 mm 0.00 in0.0 mm 0.05 in1.3 mm
05:15 AM 65.4°F18.6°C 63.6°F17.6°C 94% Calm Calm -- 30.20 in1022.7 mb 0.04 in1.0 mm 0.00 in0.0 mm 0.05 in1.3 mm
05:20 AM 65.3°F18.5°C 63.5°F17.5°C 94% Calm Calm -- 30.19 in1022.4 mb 0.04 in1.0 mm 0.00 in0.0 mm 0.05 in1.3 mm
05:25 AM 65.4°F18.6°C 63.6°F17.6°C 94% Calm Calm -- 30.20 in1022.7 mb 0.04 in1.0 mm 0.00 in0.0 mm 0.05 in1.3 mm
05:30 AM 65.3°F18.5°C 63.5°F17.5°C 94% Calm Calm -- 30.20 in1022.7 mb 0.04 in1.0 mm 0.00 in0.0 mm 0.05 in1.3 mm
05:35 AM 65.3°F18.5°C 63.5°F17.5°C 94% Calm Calm -- 30.19 in1022.4 mb 0.04 in1.0 mm 0.00 in0.0 mm 0.05 in1.3 mm
05:40 AM 65.3°F18.5°C 63.5°F17.5°C 94% Calm Calm -- 30.19 in1022.4 mb 0.04 in1.0 mm 0.00 in0.0 mm 0.05 in1.3 mm
05:45 AM 65.3°F18.5°C 63.5°F17.5°C 94% Calm Calm -- 30.20 in1022.7 mb 0.04 in1.0 mm 0.00 in0.0 mm 0.05 in1.3 mm
05:50 AM 65.2°F18.4°C 63.4°F17.4°C 94% Calm Calm -- 30.20 in1022.7 mb 0.04 in1.0 mm 0.00 in0.0 mm 0.05 in1.3 mm
05:55 AM 65.2°F18.4°C 63.4°F17.4°C 94% Calm Calm -- 30.20 in1022.7 mb 0.04 in1.0 mm 0.00 in0.0 mm 0.05 in1.3 mm
06:00 AM 65.2°F18.4°C 63.4°F17.4°C 94% Calm Calm -- 30.20 in1022.7 mb 0.00 in0.0 mm 0.00 in0.0 mm 0.05 in1.3 mm
06:05 AM 65.3°F18.5°C 63.5°F17.5°C 94% Calm Calm -- 30.20 in1022.7 mb 0.00 in0.0 mm 0.00 in0.0 mm 0.05 in1.3 mm
06:10 AM 65.3°F18.5°C 63.5°F17.5°C 94% Calm Calm -- 30.20 in1022.7 mb 0.00 in0.0 mm 0.00 in0.0 mm 0.05 in1.3 mm
06:15 AM 65.3°F18.5°C 63.8°F17.7°C 95% Calm Calm -- 30.21 in1023.0 mb 0.00 in0.0 mm 0.00 in0.0 mm 0.05 in1.3 mm
06:20 AM 65.4°F18.6°C 63.9°F17.7°C 95% Calm Calm 1.0 mph1.6 kmh 30.21 in1023.0 mb 0.00 in0.0 mm 0.00 in0.0 mm 0.05 in1.3 mm
06:25 AM 65.3°F18.5°C 63.8°F17.7°C 95% Calm Calm 1.0 mph1.6 kmh 30.21 in1023.0 mb 0.00 in0.0 mm 0.00 in0.0 mm 0.05 in1.3 mm
06:30 AM 65.3°F18.5°C 63.8°F17.7°C 95% Calm Calm 1.0 mph1.6 kmh 30.22 in1023.4 mb 0.00 in0.0 mm 0.00 in0.0 mm 0.05 in1.3 mm
06:35 AM 65.3°F18.5°C 63.8°F17.7°C 95% Calm Calm 1.0 mph1.6 kmh 30.22 in1023.4 mb 0.00 in0.0 mm 0.00 in0.0 mm 0.05 in1.3 mm
06:40 AM 65.2°F18.4°C 63.7°F17.6°C 95% Calm Calm 1.0 mph1.6 kmh 30.22 in1023.4 mb 0.00 in0.0 mm 0.00 in0.0 mm 0.05 in1.3 mm
06:45 AM 65.2°F18.4°C 63.7°F17.6°C 95% Calm Calm 3.0 mph4.8 kmh 30.22 in1023.4 mb 0.00 in0.0 mm 0.00 in0.0 mm 0.05 in1.3 mm
06:50 AM 65.1°F18.4°C 63.6°F17.6°C 95% Calm Calm 5.0 mph8.0 kmh 30.22 in1023.4 mb 0.00 in0.0 mm 0.00 in0.0 mm 0.05 in1.3 mm
06:55 AM 65.1°F18.4°C 63.6°F17.6°C 95% Calm Calm 5.0 mph8.0 kmh 30.22 in1023.4 mb 0.00 in0.0 mm 0.00 in0.0 mm 0.05 in1.3 mm
07:00 AM 65.1°F18.4°C 63.6°F17.6°C 95% Calm Calm -- 30.23 in1023.7 mb 0.00 in0.0 mm 0.00 in0.0 mm 0.05 in1.3 mm
07:05 AM 65.0°F18.3°C 63.5°F17.5°C 95% Calm Calm -- 30.22 in1023.4 mb 0.00 in0.0 mm 0.00 in0.0 mm 0.05 in1.3 mm
07:10 AM 64.8°F18.2°C 63.0°F17.2°C 94% Calm Calm -- 30.22 in1023.4 mb 0.00 in0.0 mm 0.00 in0.0 mm 0.05 in1.3 mm
07:15 AM 64.6°F18.1°C 63.1°F17.3°C 95% Calm Calm -- 30.23 in1023.7 mb 0.00 in0.0 mm 0.00 in0.0 mm 0.05 in1.3 mm
07:22 AM 64.4°F18.0°C 62.9°F17.2°C 95% Calm Calm -- 30.22 in1023.4 mb 0.00 in0.0 mm 0.00 in0.0 mm 0.05 in1.3 mm
07:25 AM 64.3°F17.9°C 62.8°F17.1°C 95% Calm Calm -- 30.22 in1023.4 mb 0.00 in0.0 mm 0.00 in0.0 mm 0.05 in1.3 mm
07:30 AM 64.3°F17.9°C 62.8°F17.1°C 95% Calm Calm -- 30.23 in1023.7 mb 0.00 in0.0 mm 0.00 in0.0 mm 0.05 in1.3 mm
07:35 AM 64.2°F17.9°C 62.7°F17.1°C 95% Calm Calm -- 30.23 in1023.7 mb 0.00 in0.0 mm 0.00 in0.0 mm 0.05 in1.3 mm
07:40 AM 64.2°F17.9°C 62.7°F17.1°C 95% Calm Calm -- 30.23 in1023.7 mb 0.00 in0.0 mm 0.00 in0.0 mm 0.05 in1.3 mm
07:45 AM 64.1°F17.8°C 62.6°F17.0°C 95% Calm Calm -- 30.23 in1023.7 mb 0.00 in0.0 mm 0.00 in0.0 mm 0.05 in1.3 mm
07:50 AM 64.1°F17.8°C 62.6°F17.0°C 95% Calm Calm -- 30.23 in1023.7 mb 0.00 in0.0 mm 0.00 in0.0 mm 0.05 in1.3 mm
07:55 AM 64.1°F17.8°C 62.6°F17.0°C 95% Calm Calm -- 30.24 in1024.0 mb 0.00 in0.0 mm 0.00 in0.0 mm 0.05 in1.3 mm
08:00 AM 64.3°F17.9°C 63.1°F17.3°C 96% Calm Calm -- 30.24 in1024.0 mb 0.00 in0.0 mm 0.00 in0.0 mm 0.05 in1.3 mm
08:05 AM 64.7°F18.2°C 63.5°F17.5°C 96% Calm Calm -- 30.24 in1024.0 mb 0.00 in0.0 mm 0.00 in0.0 mm 0.05 in1.3 mm
08:10 AM 64.9°F18.3°C 63.7°F17.6°C 96% Calm Calm -- 30.25 in1024.4 mb 0.00 in0.0 mm 0.00 in0.0 mm 0.05 in1.3 mm
08:15 AM 65.2°F18.4°C 64.0°F17.8°C 96% Calm Calm -- 30.24 in1024.0 mb 0.00 in0.0 mm 0.00 in0.0 mm 0.05 in1.3 mm
08:20 AM 65.4°F18.6°C 64.2°F17.9°C 96% Calm Calm -- 30.24 in1024.0 mb 0.00 in0.0 mm 0.00 in0.0 mm 0.05 in1.3 mm
08:25 AM 65.6°F18.7°C 64.7°F18.2°C 97% Calm Calm -- 30.25 in1024.4 mb 0.00 in0.0 mm 0.00 in0.0 mm 0.05 in1.3 mm
08:30 AM 65.7°F18.7°C 64.8°F18.2°C 97% 3.0 mph NE4.8 kmh NE 4.0 mph6.4 kmh 30.25 in1024.4 mb 0.00 in0.0 mm 0.00 in0.0 mm 0.05 in1.3 mm
08:35 AM 65.8°F18.8°C 64.6°F18.1°C 96% Calm Calm 4.0 mph6.4 kmh 30.25 in1024.4 mb 0.00 in0.0 mm 0.00 in0.0 mm 0.05 in1.3 mm
08:40 AM 65.8°F18.8°C 64.9°F18.3°C 97% 7.0 mph NE11.3 kmh NE 7.0 mph11.3 kmh 30.25 in1024.4 mb 0.00 in0.0 mm 0.00 in0.0 mm 0.05 in1.3 mm
08:45 AM 65.8°F18.8°C 64.9°F18.3°C 97% 5.0 mph NNE8.0 kmh NNE 8.0 mph12.9 kmh 30.25 in1024.4 mb 0.00 in0.0 mm 0.00 in0.0 mm 0.05 in1.3 mm
08:50 AM 65.8°F18.8°C 64.6°F18.1°C 96% 7.0 mph NE11.3 kmh NE 9.0 mph14.5 kmh 30.25 in1024.4 mb 0.00 in0.0 mm 0.00 in0.0 mm 0.05 in1.3 mm
08:55 AM 65.9°F18.8°C 65.0°F18.3°C 97% Calm Calm 9.0 mph14.5 kmh 30.25 in1024.4 mb 0.00 in0.0 mm 0.00 in0.0 mm 0.05 in1.3 mm
09:00 AM 65.8°F18.8°C 64.9°F18.3°C 97% 6.0 mph NE9.7 kmh NE 6.0 mph9.7 kmh 30.26 in1024.7 mb 0.00 in0.0 mm 0.00 in0.0 mm 0.05 in1.3 mm
09:05 AM 65.8°F18.8°C 64.9°F18.3°C 97% 4.0 mph NE6.4 kmh NE 12.0 mph19.3 kmh 30.25 in1024.4 mb 0.00 in0.0 mm 0.00 in0.0 mm 0.05 in1.3 mm
09:10 AM 65.6°F18.7°C 64.4°F18.0°C 96% 5.0 mph NE8.0 kmh NE 13.0 mph20.9 kmh 30.26 in1024.7 mb 0.00 in0.0 mm 0.00 in0.0 mm 0.05 in1.3 mm
09:15 AM 65.4°F18.6°C 64.5°F18.1°C 97% 4.0 mph NE6.4 kmh NE 13.0 mph20.9 kmh 30.27 in1025.1 mb 0.00 in0.0 mm 0.00 in0.0 mm 0.05 in1.3 mm
09:20 AM 65.4°F18.6°C 64.5°F18.1°C 97% 3.0 mph ENE4.8 kmh ENE 13.0 mph20.9 kmh 30.26 in1024.7 mb 0.00 in0.0 mm 0.00 in0.0 mm 0.05 in1.3 mm
09:25 AM 65.2°F18.4°C 64.3°F17.9°C 97% 8.0 mph NE12.9 kmh NE 13.0 mph20.9 kmh 30.26 in1024.7 mb 0.00 in0.0 mm 0.00 in0.0 mm 0.05 in1.3 mm
09:30 AM 65.2°F18.4°C 64.3°F17.9°C 97% 3.0 mph NE4.8 kmh NE 13.0 mph20.9 kmh 30.26 in1024.7 mb 0.00 in0.0 mm 0.00 in0.0 mm 0.05 in1.3 mm
09:35 AM 65.2°F18.4°C 64.3°F17.9°C 97% 3.0 mph NE4.8 kmh NE 13.0 mph20.9 kmh 30.26 in1024.7 mb 0.00 in0.0 mm 0.00 in0.0 mm 0.05 in1.3 mm
09:40 AM 65.3°F18.5°C 64.4°F18.0°C 97% 3.0 mph NNE4.8 kmh NNE 13.0 mph20.9 kmh 30.26 in1024.7 mb 0.00 in0.0 mm 0.00 in0.0 mm 0.05 in1.3 mm
09:45 AM 65.3°F18.5°C 64.4°F18.0°C 97% 2.0 mph NE3.2 kmh NE 13.0 mph20.9 kmh 30.26 in1024.7 mb 0.00 in0.0 mm 0.00 in0.0 mm 0.05 in1.3 mm
09:50 AM 65.5°F18.6°C 64.6°F18.1°C 97% 4.0 mph NE6.4 kmh NE 13.0 mph20.9 kmh 30.26 in1024.7 mb 0.00 in0.0 mm 0.00 in0.0 mm 0.05 in1.3 mm
09:55 AM 65.5°F18.6°C 64.6°F18.1°C 97% Calm Calm 13.0 mph20.9 kmh 30.26 in1024.7 mb 0.00 in0.0 mm 0.00 in0.0 mm 0.05 in1.3 mm
10:00 AM 66.2°F19.0°C 65.6°F18.7°C 98% 8.0 mph NE12.9 kmh NE 8.0 mph12.9 kmh 30.27 in1025.1 mb 0.00 in0.0 mm 0.00 in0.0 mm 0.05 in1.3 mm
10:05 AM 66.6°F19.2°C 66.0°F18.9°C 98% 7.0 mph NE11.3 kmh NE 11.0 mph17.7 kmh 30.26 in1024.7 mb 0.00 in0.0 mm 0.00 in0.0 mm 0.05 in1.3 mm
10:10 AM 66.9°F19.4°C 66.3°F19.1°C 98% Calm Calm 11.0 mph17.7 kmh 30.27 in1025.1 mb 0.00 in0.0 mm 0.00 in0.0 mm 0.05 in1.3 mm
10:15 AM 66.9°F19.4°C 66.0°F18.9°C 97% 5.0 mph NNE8.0 kmh NNE 11.0 mph17.7 kmh 30.27 in1025.1 mb 0.00 in0.0 mm 0.00 in0.0 mm 0.05 in1.3 mm
10:20 AM 67.1°F19.5°C 66.2°F19.0°C 97% Calm Calm 11.0 mph17.7 kmh 30.27 in1025.1 mb 0.00 in0.0 mm 0.00 in0.0 mm 0.05 in1.3 mm
10:25 AM 67.3°F19.6°C 66.4°F19.1°C 97% 3.0 mph N4.8 kmh N 11.0 mph17.7 kmh 30.27 in1025.1 mb 0.00 in0.0 mm 0.00 in0.0 mm 0.05 in1.3 mm
10:30 AM 67.5°F19.7°C 66.6°F19.2°C 97% 4.0 mph NE6.4 kmh NE 11.0 mph17.7 kmh 30.27 in1025.1 mb 0.00 in0.0 mm 0.00 in0.0 mm 0.05 in1.3 mm
10:35 AM 67.9°F19.9°C 66.7°F19.3°C 96% 4.0 mph NE6.4 kmh NE 11.0 mph17.7 kmh 30.26 in1024.7 mb 0.00 in0.0 mm 0.00 in0.0 mm 0.05 in1.3 mm
10:40 AM 67.6°F19.8°C 66.1°F18.9°C 95% Calm Calm 11.0 mph17.7 kmh 30.26 in1024.7 mb 0.00 in0.0 mm 0.00 in0.0 mm 0.05 in1.3 mm
10:45 AM 67.6°F19.8°C 66.4°F19.1°C 96% 5.0 mph NE8.0 kmh NE 11.0 mph17.7 kmh 30.27 in1025.1 mb 0.00 in0.0 mm 0.00 in0.0 mm 0.05 in1.3 mm
10:50 AM 67.3°F19.6°C 66.1°F18.9°C 96% Calm Calm 11.0 mph17.7 kmh 30.27 in1025.1 mb 0.00 in0.0 mm 0.00 in0.0 mm 0.05 in1.3 mm
10:55 AM 67.5°F19.7°C 66.6°F19.2°C 97% 1.0 mph ENE1.6 kmh ENE 11.0 mph17.7 kmh 30.27 in1025.1 mb 0.00 in0.0 mm 0.00 in0.0 mm 0.05 in1.3 mm
11:00 AM 67.4°F19.7°C 66.5°F19.2°C 97% Calm Calm -- 30.26 in1024.7 mb 0.00 in0.0 mm 0.00 in0.0 mm 0.05 in1.3 mm
11:05 AM 67.5°F19.7°C 66.3°F19.1°C 96% 6.0 mph NE9.7 kmh NE 8.0 mph12.9 kmh 30.27 in1025.1 mb 0.00 in0.0 mm 0.00 in0.0 mm 0.05 in1.3 mm
11:10 AM 67.7°F19.8°C 66.5°F19.2°C 96% 5.0 mph ENE8.0 kmh ENE 9.0 mph14.5 kmh 30.26 in1024.7 mb 0.00 in0.0 mm 0.00 in0.0 mm 0.05 in1.3 mm
11:15 AM 67.7°F19.8°C 66.2°F19.0°C 95% 9.0 mph E14.5 kmh E 9.0 mph14.5 kmh 30.26 in1024.7 mb 0.01 in0.3 mm 0.12 in3.0 mm 0.06 in1.5 mm
11:20 AM 67.8°F19.9°C 66.6°F19.2°C 96% Calm Calm 9.0 mph14.5 kmh 30.25 in1024.4 mb 0.01 in0.3 mm 0.00 in0.0 mm 0.06 in1.5 mm
11:25 AM 67.5°F19.7°C 66.0°F18.9°C 95% 3.0 mph E4.8 kmh E 10.0 mph16.1 kmh 30.26 in1024.7 mb 0.01 in0.3 mm 0.00 in0.0 mm 0.06 in1.5 mm
11:30 AM 67.6°F19.8°C 66.4°F19.1°C 96% Calm Calm 10.0 mph16.1 kmh 30.25 in1024.4 mb 0.01 in0.3 mm 0.00 in0.0 mm 0.06 in1.5 mm
11:35 AM 68.0°F20.0°C 67.1°F19.5°C 97% Calm Calm 10.0 mph16.1 kmh 30.25 in1024.4 mb 0.01 in0.3 mm 0.00 in0.0 mm 0.06 in1.5 mm
11:40 AM 68.1°F20.1°C 67.2°F19.6°C 97% 2.0 mph E3.2 kmh E 10.0 mph16.1 kmh 30.25 in1024.4 mb 0.01 in0.3 mm 0.00 in0.0 mm 0.06 in1.5 mm
11:45 AM 68.0°F20.0°C 66.8°F19.3°C 96% Calm Calm 10.0 mph16.1 kmh 30.25 in1024.4 mb 0.01 in0.3 mm 0.00 in0.0 mm 0.06 in1.5 mm
11:50 AM 68.1°F20.1°C 66.9°F19.4°C 96% 3.0 mph NE4.8 kmh NE 10.0 mph16.1 kmh 30.25 in1024.4 mb 0.01 in0.3 mm 0.00 in0.0 mm 0.06 in1.5 mm
11:55 AM 68.1°F20.1°C 66.9°F19.4°C 96% Calm Calm 10.0 mph16.1 kmh 30.25 in1024.4 mb 0.01 in0.3 mm 0.00 in0.0 mm 0.06 in1.5 mm
12:00 PM 68.1°F20.1°C 67.2°F19.6°C 97% 6.0 mph NE9.7 kmh NE 6.0 mph9.7 kmh 30.25 in1024.4 mb 0.01 in0.3 mm 0.00 in0.0 mm 0.06 in1.5 mm
12:05 PM 68.0°F20.0°C 66.5°F19.2°C 95% 3.0 mph E4.8 kmh E 8.0 mph12.9 kmh 30.24 in1024.0 mb 0.01 in0.3 mm 0.00 in0.0 mm 0.06 in1.5 mm
12:10 PM 67.9°F19.9°C 66.4°F19.1°C 95% Calm Calm 10.0 mph16.1 kmh 30.25 in1024.4 mb 0.01 in0.3 mm 0.00 in0.0 mm 0.06 in1.5 mm
12:15 PM 67.8°F19.9°C 66.0°F18.9°C 94% 3.0 mph ENE4.8 kmh ENE 10.0 mph16.1 kmh 30.24 in1024.0 mb 0.01 in0.3 mm 0.00 in0.0 mm 0.06 in1.5 mm
12:20 PM 67.7°F19.8°C 65.9°F18.8°C 94% 6.0 mph E9.7 kmh E 10.0 mph16.1 kmh 30.24 in1024.0 mb 0.01 in0.3 mm 0.00 in0.0 mm 0.06 in1.5 mm
12:25 PM 67.8°F19.9°C 66.0°F18.9°C 94% 3.0 mph E4.8 kmh E 10.0 mph16.1 kmh 30.24 in1024.0 mb 0.01 in0.3 mm 0.00 in0.0 mm 0.06 in1.5 mm
12:30 PM 68.0°F20.0°C 66.2°F19.0°C 94% Calm Calm 10.0 mph16.1 kmh 30.24 in1024.0 mb 0.01 in0.3 mm 0.00 in0.0 mm 0.06 in1.5 mm
12:35 PM 67.9°F19.9°C 65.8°F18.8°C 93% 7.0 mph ENE11.3 kmh ENE 10.0 mph16.1 kmh 30.23 in1023.7 mb 0.01 in0.3 mm 0.00 in0.0 mm 0.06 in1.5 mm
12:40 PM 67.9°F19.9°C 65.2°F18.4°C 91% Calm Calm 10.0 mph16.1 kmh 30.23 in1023.7 mb 0.01 in0.3 mm 0.00 in0.0 mm 0.06 in1.5 mm
12:45 PM 67.8°F19.9°C 64.8°F18.2°C 90% 8.0 mph NE12.9 kmh NE 10.0 mph16.1 kmh 30.23 in1023.7 mb 0.01 in0.3 mm 0.00 in0.0 mm 0.06 in1.5 mm
12:50 PM 67.6°F19.8°C 64.6°F18.1°C 90% 2.0 mph E3.2 kmh E 10.0 mph16.1 kmh 30.23 in1023.7 mb 0.01 in0.3 mm 0.00 in0.0 mm 0.06 in1.5 mm
12:55 PM 67.6°F19.8°C 64.6°F18.1°C 90% 4.0 mph ESE6.4 kmh ESE 10.0 mph16.1 kmh 30.23 in1023.7 mb 0.01 in0.3 mm 0.00 in0.0 mm 0.06 in1.5 mm
01:00 PM 67.5°F19.7°C 64.5°F18.1°C 90% 3.0 mph E4.8 kmh E 3.0 mph4.8 kmh 30.22 in1023.4 mb 0.00 in0.0 mm 0.00 in0.0 mm 0.06 in1.5 mm
01:05 PM 67.7°F19.8°C 64.4°F18.0°C 89% Calm Calm 7.0 mph11.3 kmh 30.22 in1023.4 mb 0.00 in0.0 mm 0.00 in0.0 mm 0.06 in1.5 mm
01:10 PM 68.1°F20.1°C 64.7°F18.2°C 89% Calm Calm 10.0 mph16.1 kmh 30.22 in1023.4 mb 0.00 in0.0 mm 0.00 in0.0 mm 0.06 in1.5 mm
01:15 PM 68.7°F20.4°C 65.7°F18.7°C 90% Calm Calm 11.0 mph17.7 kmh 30.21 in1023.0 mb 0.00 in0.0 mm 0.00 in0.0 mm 0.06 in1.5 mm
01:20 PM 68.8°F20.4°C 65.4°F18.6°C 89% 6.0 mph E9.7 kmh E 11.0 mph17.7 kmh 30.21 in1023.0 mb 0.00 in0.0 mm 0.00 in0.0 mm 0.06 in1.5 mm
01:25 PM 69.0°F20.6°C 65.3°F18.5°C 88% 10.0 mph ENE16.1 kmh ENE 11.0 mph17.7 kmh 30.21 in1023.0 mb 0.00 in0.0 mm 0.00 in0.0 mm 0.06 in1.5 mm
01:30 PM 69.0°F20.6°C 65.6°F18.7°C 89% 4.0 mph ENE6.4 kmh ENE 11.0 mph17.7 kmh 30.20 in1022.7 mb 0.00 in0.0 mm 0.00 in0.0 mm 0.06 in1.5 mm
01:35 PM 68.8°F20.4°C 65.8°F18.8°C 90% 4.0 mph ENE6.4 kmh ENE 11.0 mph17.7 kmh 30.20 in1022.7 mb 0.00 in0.0 mm 0.00 in0.0 mm 0.06 in1.5 mm
01:40 PM 68.4°F20.2°C 65.4°F18.6°C 90% Calm Calm 11.0 mph17.7 kmh 30.21 in1023.0 mb 0.00 in0.0 mm 0.00 in0.0 mm 0.06 in1.5 mm
01:45 PM 68.2°F20.1°C 65.5°F18.6°C 91% 11.0 mph ESE17.7 kmh ESE 11.0 mph17.7 kmh 30.21 in1023.0 mb 0.00 in0.0 mm 0.00 in0.0 mm 0.06 in1.5 mm
01:50 PM 68.0°F20.0°C 65.3°F18.5°C 91% 1.0 mph ENE1.6 kmh ENE 11.0 mph17.7 kmh 30.20 in1022.7 mb 0.00 in0.0 mm 0.00 in0.0 mm 0.06 in1.5 mm
01:55 PM 68.0°F20.0°C 65.3°F18.5°C 91% 2.0 mph ESE3.2 kmh ESE 14.0 mph22.5 kmh 30.20 in1022.7 mb 0.00 in0.0 mm 0.00 in0.0 mm 0.06 in1.5 mm
02:00 PM 68.0°F20.0°C 65.6°F18.7°C 92% 11.0 mph ESE17.7 kmh ESE 11.0 mph17.7 kmh 30.20 in1022.7 mb 0.00 in0.0 mm 0.00 in0.0 mm 0.06 in1.5 mm
02:05 PM 68.0°F20.0°C 65.6°F18.7°C 92% 10.0 mph E16.1 kmh E 13.0 mph20.9 kmh 30.19 in1022.4 mb 0.00 in0.0 mm 0.00 in0.0 mm 0.06 in1.5 mm
02:10 PM 67.7°F19.8°C 65.3°F18.5°C 92% 6.0 mph ESE9.7 kmh ESE 13.0 mph20.9 kmh 30.20 in1022.7 mb 0.00 in0.0 mm 0.00 in0.0 mm 0.06 in1.5 mm
02:15 PM 67.5°F19.7°C 65.4°F18.6°C 93% 5.0 mph ESE8.0 kmh ESE 13.0 mph20.9 kmh 30.20 in1022.7 mb 0.00 in0.0 mm 0.00 in0.0 mm 0.06 in1.5 mm
02:20 PM 67.3°F19.6°C 65.5°F18.6°C 94% 1.0 mph E1.6 kmh E 13.0 mph20.9 kmh 30.19 in1022.4 mb 0.00 in0.0 mm 0.00 in0.0 mm 0.06 in1.5 mm
02:25 PM 67.0°F19.4°C 65.2°F18.4°C 94% 6.0 mph NE9.7 kmh NE 13.0 mph20.9 kmh 30.20 in1022.7 mb 0.00 in0.0 mm 0.00 in0.0 mm 0.06 in1.5 mm
02:30 PM 66.5°F19.2°C 64.7°F18.2°C 94% 6.0 mph NE9.7 kmh NE 13.0 mph20.9 kmh 30.20 in1022.7 mb 0.00 in0.0 mm 0.00 in0.0 mm 0.06 in1.5 mm
02:35 PM 66.2°F19.0°C 64.4°F18.0°C 94% Calm Calm 13.0 mph20.9 kmh 30.20 in1022.7 mb 0.00 in0.0 mm 0.00 in0.0 mm 0.06 in1.5 mm
02:40 PM 66.0°F18.9°C 64.2°F17.9°C 94% 1.0 mph NE1.6 kmh NE 13.0 mph20.9 kmh 30.19 in1022.4 mb 0.00 in0.0 mm 0.00 in0.0 mm 0.06 in1.5 mm
02:45 PM 65.9°F18.8°C 64.1°F17.8°C 94% 4.0 mph NE6.4 kmh NE 13.0 mph20.9 kmh 30.19 in1022.4 mb 0.00 in0.0 mm 0.00 in0.0 mm 0.06 in1.5 mm
02:50 PM 65.8°F18.8°C 63.7°F17.6°C 93% 2.0 mph NE3.2 kmh NE 13.0 mph20.9 kmh 30.19 in1022.4 mb 0.00 in0.0 mm 0.00 in0.0 mm 0.06 in1.5 mm
02:55 PM 65.9°F18.8°C 63.8°F17.7°C 93% 4.0 mph NE6.4 kmh NE 13.0 mph20.9 kmh 30.19 in1022.4 mb 0.00 in0.0 mm 0.00 in0.0 mm 0.06 in1.5 mm
03:00 PM 66.1°F18.9°C 64.0°F17.8°C 93% Calm Calm -- 30.19 in1022.4 mb 0.00 in0.0 mm 0.00 in0.0 mm 0.06 in1.5 mm
03:05 PM 66.3°F19.1°C 64.5°F18.1°C 94% Calm Calm 7.0 mph11.3 kmh 30.19 in1022.4 mb 0.00 in0.0 mm 0.00 in0.0 mm 0.06 in1.5 mm
03:10 PM 66.4°F19.1°C 64.3°F17.9°C 93% 1.0 mph E1.6 kmh E 7.0 mph11.3 kmh 30.19 in1022.4 mb 0.00 in0.0 mm 0.00 in0.0 mm 0.06 in1.5 mm
03:15 PM 66.4°F19.1°C 64.3°F17.9°C 93% 5.0 mph ESE8.0 kmh ESE 7.0 mph11.3 kmh 30.19 in1022.4 mb 0.00 in0.0 mm 0.00 in0.0 mm 0.06 in1.5 mm
03:20 PM 66.5°F19.2°C 64.4°F18.0°C 93% 6.0 mph NE9.7 kmh NE 8.0 mph12.9 kmh 30.19 in1022.4 mb 0.00 in0.0 mm 0.00 in0.0 mm 0.06 in1.5 mm
03:25 PM 66.5°F19.2°C 64.4°F18.0°C 93% 2.0 mph E3.2 kmh E 8.0 mph12.9 kmh 30.19 in1022.4 mb 0.00 in0.0 mm 0.00 in0.0 mm 0.06 in1.5 mm
03:30 PM 66.5°F19.2°C 64.4°F18.0°C 93% 3.0 mph NE4.8 kmh NE 8.0 mph12.9 kmh 30.19 in1022.4 mb 0.00 in0.0 mm 0.00 in0.0 mm 0.06 in1.5 mm
03:35 PM 66.5°F19.2°C 64.4°F18.0°C 93% Calm Calm 8.0 mph12.9 kmh 30.19 in1022.4 mb 0.00 in0.0 mm 0.00 in0.0 mm 0.06 in1.5 mm
03:40 PM 66.6°F19.2°C 64.5°F18.1°C 93% 4.0 mph E6.4 kmh E 8.0 mph12.9 kmh 30.19 in1022.4 mb 0.00 in0.0 mm 0.00 in0.0 mm 0.06 in1.5 mm
03:45 PM 66.7°F19.3°C 64.9°F18.3°C 94% 4.0 mph E6.4 kmh E 9.0 mph14.5 kmh 30.19 in1022.4 mb 0.00 in0.0 mm 0.00 in0.0 mm 0.06 in1.5 mm
03:50 PM 66.7°F19.3°C 64.9°F18.3°C 94% Calm Calm 9.0 mph14.5 kmh 30.19 in1022.4 mb 0.00 in0.0 mm 0.00 in0.0 mm 0.06 in1.5 mm
03:55 PM 66.5°F19.2°C 64.7°F18.2°C 94% 2.0 mph NE3.2 kmh NE 10.0 mph16.1 kmh 30.19 in1022.4 mb 0.01 in0.3 mm 0.12 in3.0 mm 0.07 in1.8 mm
04:00 PM 66.4°F19.1°C 65.2°F18.4°C 96% Calm Calm -- 30.19 in1022.4 mb 0.01 in0.3 mm 0.00 in0.0 mm 0.07 in1.8 mm
04:05 PM 66.3°F19.1°C 65.1°F18.4°C 96% 2.0 mph NE3.2 kmh NE 6.0 mph9.7 kmh 30.19 in1022.4 mb 0.01 in0.3 mm 0.00 in0.0 mm 0.07 in1.8 mm
04:10 PM 66.3°F19.1°C 65.1°F18.4°C 96% Calm Calm 6.0 mph9.7 kmh 30.19 in1022.4 mb 0.01 in0.3 mm 0.00 in0.0 mm 0.07 in1.8 mm
04:15 PM 66.3°F19.1°C 65.1°F18.4°C 96% Calm Calm 6.0 mph9.7 kmh 30.19 in1022.4 mb 0.01 in0.3 mm 0.00 in0.0 mm 0.07 in1.8 mm
04:20 PM 66.1°F18.9°C 64.9°F18.3°C 96% Calm Calm 6.0 mph9.7 kmh 30.19 in1022.4 mb 0.01 in0.3 mm 0.00 in0.0 mm 0.07 in1.8 mm
04:25 PM 66.1°F18.9°C 65.2°F18.4°C 97% Calm Calm 6.0 mph9.7 kmh 30.19 in1022.4 mb 0.01 in0.3 mm 0.00 in0.0 mm 0.07 in1.8 mm
04:30 PM 66.1°F18.9°C 65.2°F18.4°C 97% 2.0 mph E3.2 kmh E 6.0 mph9.7 kmh 30.18 in1022.0 mb 0.01 in0.3 mm 0.00 in0.0 mm 0.07 in1.8 mm
04:35 PM 66.2°F19.0°C 65.6°F18.7°C 98% Calm Calm 6.0 mph9.7 kmh 30.18 in1022.0 mb 0.01 in0.3 mm 0.00 in0.0 mm 0.07 in1.8 mm
04:40 PM 66.1°F18.9°C 65.2°F18.4°C 97% Calm Calm 7.0 mph11.3 kmh 30.19 in1022.4 mb 0.01 in0.3 mm 0.00 in0.0 mm 0.07 in1.8 mm
04:45 PM 66.2°F19.0°C 65.0°F18.3°C 96% 3.0 mph NE4.8 kmh NE 7.0 mph11.3 kmh 30.18 in1022.0 mb 0.01 in0.3 mm 0.00 in0.0 mm 0.07 in1.8 mm
04:50 PM 66.3°F19.1°C 64.8°F18.2°C 95% Calm Calm 7.0 mph11.3 kmh 30.18 in1022.0 mb 0.01 in0.3 mm 0.00 in0.0 mm 0.07 in1.8 mm
04:55 PM 66.3°F19.1°C 65.1°F18.4°C 96% 3.0 mph ENE4.8 kmh ENE 7.0 mph11.3 kmh 30.19 in1022.4 mb 0.01 in0.3 mm 0.00 in0.0 mm 0.07 in1.8 mm
05:00 PM 66.4°F19.1°C 65.2°F18.4°C 96% Calm Calm -- 30.19 in1022.4 mb 0.00 in0.0 mm 0.00 in0.0 mm 0.07 in1.8 mm
05:05 PM 66.6°F19.2°C 65.4°F18.6°C 96% 1.0 mph E1.6 kmh E 5.0 mph8.0 kmh 30.18 in1022.0 mb 0.00 in0.0 mm 0.00 in0.0 mm 0.07 in1.8 mm
05:10 PM 66.8°F19.3°C 65.6°F18.7°C 96% Calm Calm 5.0 mph8.0 kmh 30.19 in1022.4 mb 0.00 in0.0 mm 0.00 in0.0 mm 0.07 in1.8 mm
05:15 PM 66.9°F19.4°C 66.0°F18.9°C 97% 5.0 mph E8.0 kmh E 5.0 mph8.0 kmh 30.19 in1022.4 mb 0.00 in0.0 mm 0.00 in0.0 mm 0.07 in1.8 mm
05:20 PM 67.1°F19.5°C 65.9°F18.8°C 96% Calm Calm 5.0 mph8.0 kmh 30.19 in1022.4 mb 0.00 in0.0 mm 0.00 in0.0 mm 0.07 in1.8 mm
05:25 PM 67.1°F19.5°C 65.9°F18.8°C 96% Calm Calm 6.0 mph9.7 kmh 30.19 in1022.4 mb 0.00 in0.0 mm 0.00 in0.0 mm 0.07 in1.8 mm
05:30 PM 66.9°F19.4°C 65.4°F18.6°C 95% Calm Calm 7.0 mph11.3 kmh 30.20 in1022.7 mb 0.00 in0.0 mm 0.00 in0.0 mm 0.07 in1.8 mm
05:35 PM 66.8°F19.3°C 65.6°F18.7°C 96% 5.0 mph E8.0 kmh E 7.0 mph11.3 kmh 30.19 in1022.4 mb 0.00 in0.0 mm 0.00 in0.0 mm 0.07 in1.8 mm
05:40 PM 66.6°F19.2°C 65.7°F18.7°C 97% Calm Calm 7.0 mph11.3 kmh 30.20 in1022.7 mb 0.00 in0.0 mm 0.00 in0.0 mm 0.07 in1.8 mm
05:45 PM 66.5°F19.2°C 64.7°F18.2°C 94% Calm Calm 7.0 mph11.3 kmh 30.19 in1022.4 mb 0.00 in0.0 mm 0.00 in0.0 mm 0.07 in1.8 mm
05:50 PM 66.6°F19.2°C 64.8°F18.2°C 94% Calm Calm 7.0 mph11.3 kmh 30.19 in1022.4 mb 0.00 in0.0 mm 0.00 in0.0 mm 0.07 in1.8 mm
05:55 PM 66.7°F19.3°C 64.9°F18.3°C 94% Calm Calm 7.0 mph11.3 kmh 30.19 in1022.4 mb 0.00 in0.0 mm 0.00 in0.0 mm 0.07 in1.8 mm
06:00 PM 66.8°F19.3°C 65.0°F18.3°C 94% Calm Calm -- 30.20 in1022.7 mb 0.00 in0.0 mm 0.00 in0.0 mm 0.07 in1.8 mm
06:05 PM 67.0°F19.4°C 66.1°F18.9°C 97% Calm Calm 3.0 mph4.8 kmh 30.20 in1022.7 mb 0.00 in0.0 mm 0.00 in0.0 mm 0.07 in1.8 mm
06:10 PM 67.1°F19.5°C 65.6°F18.7°C 95% 3.0 mph ESE4.8 kmh ESE 5.0 mph8.0 kmh 30.19 in1022.4 mb 0.00 in0.0 mm 0.00 in0.0 mm 0.07 in1.8 mm
06:15 PM 67.1°F19.5°C 65.6°F18.7°C 95% 8.0 mph E12.9 kmh E 9.0 mph14.5 kmh 30.19 in1022.4 mb 0.00 in0.0 mm 0.00 in0.0 mm 0.07 in1.8 mm
06:20 PM 67.3°F19.6°C 65.8°F18.8°C 95% 5.0 mph E8.0 kmh E 9.0 mph14.5 kmh 30.19 in1022.4 mb 0.00 in0.0 mm 0.00 in0.0 mm 0.07 in1.8 mm
06:25 PM 67.3°F19.6°C 65.8°F18.8°C 95% 5.0 mph ESE8.0 kmh ESE 9.0 mph14.5 kmh 30.19 in1022.4 mb 0.00 in0.0 mm 0.00 in0.0 mm 0.07 in1.8 mm
06:30 PM 67.3°F19.6°C 65.2°F18.4°C 93% 4.0 mph SE6.4 kmh SE 9.0 mph14.5 kmh 30.19 in1022.4 mb 0.00 in0.0 mm 0.00 in0.0 mm 0.07 in1.8 mm
06:35 PM 67.3°F19.6°C 65.5°F18.6°C 94% 4.0 mph SE6.4 kmh SE 9.0 mph14.5 kmh 30.19 in1022.4 mb 0.00 in0.0 mm 0.00 in0.0 mm 0.07 in1.8 mm
06:40 PM 67.3°F19.6°C 65.2°F18.4°C 93% 3.0 mph E4.8 kmh E 9.0 mph14.5 kmh 30.19 in1022.4 mb 0.00 in0.0 mm 0.00 in0.0 mm 0.07 in1.8 mm
06:45 PM 67.3°F19.6°C 65.2°F18.4°C 93% 4.0 mph ESE6.4 kmh ESE 9.0 mph14.5 kmh 30.19 in1022.4 mb 0.00 in0.0 mm 0.00 in0.0 mm 0.07 in1.8 mm
06:50 PM 67.4°F19.7°C 65.3°F18.5°C 93% 4.0 mph ESE6.4 kmh ESE 9.0 mph14.5 kmh 30.19 in1022.4 mb 0.00 in0.0 mm 0.00 in0.0 mm 0.07 in1.8 mm
06:55 PM 67.4°F19.7°C 65.3°F18.5°C 93% 4.0 mph ESE6.4 kmh ESE 9.0 mph14.5 kmh 30.19 in1022.4 mb 0.00 in0.0 mm 0.00 in0.0 mm 0.07 in1.8 mm
07:00 PM 67.6°F19.8°C 65.8°F18.8°C 94% 4.0 mph E6.4 kmh E 4.0 mph6.4 kmh 30.19 in1022.4 mb 0.00 in0.0 mm 0.00 in0.0 mm 0.07 in1.8 mm
07:05 PM 67.8°F19.9°C 66.0°F18.9°C 94% 9.0 mph E14.5 kmh E 9.0 mph14.5 kmh 30.19 in1022.4 mb 0.00 in0.0 mm 0.00 in0.0 mm 0.07 in1.8 mm
07:10 PM 67.8°F19.9°C 65.7°F18.7°C 93% 3.0 mph ESE4.8 kmh ESE 9.0 mph14.5 kmh 30.19 in1022.4 mb 0.00 in0.0 mm 0.00 in0.0 mm 0.07 in1.8 mm
07:15 PM 67.9°F19.9°C 65.8°F18.8°C 93% 4.0 mph ESE6.4 kmh ESE 10.0 mph16.1 kmh 30.19 in1022.4 mb 0.00 in0.0 mm 0.00 in0.0 mm 0.07 in1.8 mm
07:20 PM 67.8°F19.9°C 65.7°F18.7°C 93% 4.0 mph ESE6.4 kmh ESE 10.0 mph16.1 kmh 30.19 in1022.4 mb 0.00 in0.0 mm 0.00 in0.0 mm 0.07 in1.8 mm
07:25 PM 67.8°F19.9°C 65.7°F18.7°C 93% 6.0 mph ESE9.7 kmh ESE 10.0 mph16.1 kmh 30.20 in1022.7 mb 0.00 in0.0 mm 0.00 in0.0 mm 0.07 in1.8 mm
07:30 PM 67.7°F19.8°C 65.6°F18.7°C 93% 5.0 mph ESE8.0 kmh ESE 10.0 mph16.1 kmh 30.20 in1022.7 mb 0.00 in0.0 mm 0.00 in0.0 mm 0.07 in1.8 mm
07:35 PM 67.7°F19.8°C 65.3°F18.5°C 92% 2.0 mph SE3.2 kmh SE 10.0 mph16.1 kmh 30.20 in1022.7 mb 0.00 in0.0 mm 0.00 in0.0 mm 0.07 in1.8 mm
07:40 PM 67.7°F19.8°C 65.3°F18.5°C 92% 4.0 mph ESE6.4 kmh ESE 11.0 mph17.7 kmh 30.20 in1022.7 mb 0.00 in0.0 mm 0.00 in0.0 mm 0.07 in1.8 mm
07:45 PM 67.7°F19.8°C 65.3°F18.5°C 92% 6.0 mph ESE9.7 kmh ESE 12.0 mph19.3 kmh 30.20 in1022.7 mb 0.00 in0.0 mm 0.00 in0.0 mm 0.07 in1.8 mm
07:50 PM 67.5°F19.7°C 64.8°F18.2°C 91% 4.0 mph ESE6.4 kmh ESE 12.0 mph19.3 kmh 30.20 in1022.7 mb 0.00 in0.0 mm 0.00 in0.0 mm 0.07 in1.8 mm
07:55 PM 67.3°F19.6°C 64.6°F18.1°C 91% 3.0 mph NE4.8 kmh NE 12.0 mph19.3 kmh 30.20 in1022.7 mb 0.00 in0.0 mm 0.00 in0.0 mm 0.07 in1.8 mm
08:00 PM 67.2°F19.6°C 64.5°F18.1°C 91% 3.0 mph E4.8 kmh E 3.0 mph4.8 kmh 30.20 in1022.7 mb 0.00 in0.0 mm 0.00 in0.0 mm 0.07 in1.8 mm
08:05 PM 67.3°F19.6°C 64.6°F18.1°C 91% 5.0 mph ESE8.0 kmh ESE 7.0 mph11.3 kmh 30.21 in1023.0 mb 0.00 in0.0 mm 0.00 in0.0 mm 0.07 in1.8 mm
08:10 PM 67.5°F19.7°C 64.8°F18.2°C 91% 8.0 mph ESE12.9 kmh ESE 13.0 mph20.9 kmh 30.20 in1022.7 mb 0.00 in0.0 mm 0.00 in0.0 mm 0.07 in1.8 mm
08:15 PM 67.7°F19.8°C 65.0°F18.3°C 91% 6.0 mph ESE9.7 kmh ESE 13.0 mph20.9 kmh 30.19 in1022.4 mb 0.00 in0.0 mm 0.00 in0.0 mm 0.07 in1.8 mm
08:20 PM 67.8°F19.9°C 65.1°F18.4°C 91% 8.0 mph SE12.9 kmh SE 13.0 mph20.9 kmh 30.20 in1022.7 mb 0.00 in0.0 mm 0.00 in0.0 mm 0.07 in1.8 mm
08:25 PM 68.0°F20.0°C 65.3°F18.5°C 91% 2.0 mph SE3.2 kmh SE 13.0 mph20.9 kmh 30.20 in1022.7 mb 0.00 in0.0 mm 0.00 in0.0 mm 0.07 in1.8 mm
08:30 PM 68.1°F20.1°C 65.4°F18.6°C 91% 6.0 mph ESE9.7 kmh ESE 13.0 mph20.9 kmh 30.19 in1022.4 mb 0.00 in0.0 mm 0.00 in0.0 mm 0.07 in1.8 mm
08:35 PM 68.1°F20.1°C 65.4°F18.6°C 91% 4.0 mph SE6.4 kmh SE 13.0 mph20.9 kmh 30.20 in1022.7 mb 0.00 in0.0 mm 0.00 in0.0 mm 0.07 in1.8 mm
08:40 PM 68.1°F20.1°C 65.1°F18.4°C 90% 2.0 mph ESE3.2 kmh ESE 13.0 mph20.9 kmh 30.19 in1022.4 mb 0.00 in0.0 mm 0.00 in0.0 mm 0.07 in1.8 mm
08:45 PM 68.1°F20.1°C 65.1°F18.4°C 90% 7.0 mph ESE11.3 kmh ESE 14.0 mph22.5 kmh 30.20 in1022.7 mb 0.00 in0.0 mm 0.00 in0.0 mm 0.07 in1.8 mm
08:50 PM 68.1°F20.1°C 65.1°F18.4°C 90% 6.0 mph ESE9.7 kmh ESE 15.0 mph24.1 kmh 30.20 in1022.7 mb 0.00 in0.0 mm 0.00 in0.0 mm 0.07 in1.8 mm
08:55 PM 68.1°F20.1°C 65.1°F18.4°C 90% 3.0 mph SE4.8 kmh SE 15.0 mph24.1 kmh 30.21 in1023.0 mb 0.00 in0.0 mm 0.00 in0.0 mm 0.07 in1.8 mm
09:00 PM 68.1°F20.1°C 65.1°F18.4°C 90% Calm Calm -- 30.21 in1023.0 mb 0.00 in0.0 mm 0.00 in0.0 mm 0.07 in1.8 mm
09:05 PM 68.1°F20.1°C 64.7°F18.2°C 89% 3.0 mph ESE4.8 kmh ESE 9.0 mph14.5 kmh 30.20 in1022.7 mb 0.00 in0.0 mm 0.00 in0.0 mm 0.07 in1.8 mm
09:10 PM 68.0°F20.0°C 65.0°F18.3°C 90% 3.0 mph ESE4.8 kmh ESE 11.0 mph17.7 kmh 30.20 in1022.7 mb 0.00 in0.0 mm 0.00 in0.0 mm 0.07 in1.8 mm
09:15 PM 68.1°F20.1°C 64.7°F18.2°C 89% 7.0 mph ESE11.3 kmh ESE 12.0 mph19.3 kmh 30.21 in1023.0 mb 0.00 in0.0 mm 0.00 in0.0 mm 0.07 in1.8 mm
09:20 PM 68.0°F20.0°C 64.6°F18.1°C 89% 8.0 mph SE12.9 kmh SE 14.0 mph22.5 kmh 30.20 in1022.7 mb 0.00 in0.0 mm 0.00 in0.0 mm 0.07 in1.8 mm
09:25 PM 67.9°F19.9°C 64.2°F17.9°C 88% 4.0 mph SE6.4 kmh SE 14.0 mph22.5 kmh 30.21 in1023.0 mb 0.00 in0.0 mm 0.00 in0.0 mm 0.07 in1.8 mm
09:30 PM 67.8°F19.9°C 64.1°F17.8°C 88% 1.0 mph E1.6 kmh E 14.0 mph22.5 kmh 30.21 in1023.0 mb 0.00 in0.0 mm 0.00 in0.0 mm 0.07 in1.8 mm
09:35 PM 67.8°F19.9°C 64.1°F17.8°C 88% 12.0 mph SE19.3 kmh SE 14.0 mph22.5 kmh 30.21 in1023.0 mb 0.00 in0.0 mm 0.00 in0.0 mm 0.07 in1.8 mm
09:40 PM 67.9°F19.9°C 64.2°F17.9°C 88% 2.0 mph SE3.2 kmh SE 16.0 mph25.7 kmh 30.20 in1022.7 mb 0.00 in0.0 mm 0.00 in0.0 mm 0.07 in1.8 mm
09:45 PM 68.0°F20.0°C 64.3°F17.9°C 88% 6.0 mph SE9.7 kmh SE 16.0 mph25.7 kmh 30.20 in1022.7 mb 0.00 in0.0 mm 0.00 in0.0 mm 0.07 in1.8 mm
09:50 PM 68.2°F20.1°C 64.8°F18.2°C 89% Calm Calm 16.0 mph25.7 kmh 30.21 in1023.0 mb 0.00 in0.0 mm 0.00 in0.0 mm 0.07 in1.8 mm
09:55 PM 68.3°F20.2°C 64.6°F18.1°C 88% 2.0 mph SE3.2 kmh SE 16.0 mph25.7 kmh 30.21 in1023.0 mb 0.00 in0.0 mm 0.00 in0.0 mm 0.07 in1.8 mm
10:00 PM 68.4°F20.2°C 65.0°F18.3°C 89% 9.0 mph SE14.5 kmh SE 9.0 mph14.5 kmh 30.21 in1023.0 mb 0.00 in0.0 mm 0.00 in0.0 mm 0.07 in1.8 mm
10:05 PM 68.5°F20.3°C 65.1°F18.4°C 89% 6.0 mph ESE9.7 kmh ESE 11.0 mph17.7 kmh 30.21 in1023.0 mb 0.00 in0.0 mm 0.00 in0.0 mm 0.07 in1.8 mm
10:10 PM 68.6°F20.3°C 65.6°F18.7°C 90% 10.0 mph ESE16.1 kmh ESE 11.0 mph17.7 kmh 30.21 in1023.0 mb 0.00 in0.0 mm 0.00 in0.0 mm 0.07 in1.8 mm
10:15 PM 68.7°F20.4°C 65.7°F18.7°C 90% 4.0 mph SE6.4 kmh SE 11.0 mph17.7 kmh 30.20 in1022.7 mb 0.00 in0.0 mm 0.00 in0.0 mm 0.07 in1.8 mm
10:20 PM 68.7°F20.4°C 65.7°F18.7°C 90% 11.0 mph SE17.7 kmh SE 11.0 mph17.7 kmh 30.20 in1022.7 mb 0.00 in0.0 mm 0.00 in0.0 mm 0.07 in1.8 mm
10:25 PM 68.7°F20.4°C 65.7°F18.7°C 90% 1.0 mph ESE1.6 kmh ESE 12.0 mph19.3 kmh 30.22 in1023.4 mb 0.00 in0.0 mm 0.00 in0.0 mm 0.07 in1.8 mm
10:30 PM 68.7°F20.4°C 65.7°F18.7°C 90% 5.0 mph SE8.0 kmh SE 12.0 mph19.3 kmh 30.21 in1023.0 mb 0.00 in0.0 mm 0.00 in0.0 mm 0.07 in1.8 mm
10:35 PM 68.6°F20.3°C 65.6°F18.7°C 90% 5.0 mph ESE8.0 kmh ESE 12.0 mph19.3 kmh 30.21 in1023.0 mb 0.00 in0.0 mm 0.00 in0.0 mm 0.07 in1.8 mm
10:40 PM 68.6°F20.3°C 65.6°F18.7°C 90% 7.0 mph SE11.3 kmh SE 12.0 mph19.3 kmh 30.20 in1022.7 mb 0.00 in0.0 mm 0.00 in0.0 mm 0.07 in1.8 mm
10:45 PM 68.5°F20.3°C 65.5°F18.6°C 90% 5.0 mph E8.0 kmh E 12.0 mph19.3 kmh 30.21 in1023.0 mb 0.00 in0.0 mm 0.00 in0.0 mm 0.07 in1.8 mm
10:50 PM 68.5°F20.3°C 65.5°F18.6°C 90% Calm Calm 12.0 mph19.3 kmh 30.21 in1023.0 mb 0.00 in0.0 mm 0.00 in0.0 mm 0.07 in1.8 mm
10:55 PM 68.6°F20.3°C 65.9°F18.8°C 91% Calm Calm 12.0 mph19.3 kmh 30.21 in1023.0 mb 0.00 in0.0 mm 0.00 in0.0 mm 0.07 in1.8 mm
11:00 PM 68.5°F20.3°C 65.8°F18.8°C 91% 2.0 mph SE3.2 kmh SE 7.0 mph11.3 kmh 30.21 in1023.0 mb 0.00 in0.0 mm 0.00 in0.0 mm 0.07 in1.8 mm
11:05 PM 68.6°F20.3°C 65.9°F18.8°C 91% Calm Calm 7.0 mph11.3 kmh 30.21 in1023.0 mb 0.00 in0.0 mm 0.00 in0.0 mm 0.07 in1.8 mm
11:10 PM 68.5°F20.3°C 65.8°F18.8°C 91% Calm Calm 9.0 mph14.5 kmh 30.21 in1023.0 mb 0.00 in0.0 mm 0.00 in0.0 mm 0.07 in1.8 mm
11:15 PM 68.6°F20.3°C 65.9°F18.8°C 91% 6.0 mph ESE9.7 kmh ESE 13.0 mph20.9 kmh 30.21 in1023.0 mb 0.00 in0.0 mm 0.00 in0.0 mm 0.07 in1.8 mm
11:20 PM 68.6°F20.3°C 66.2°F19.0°C 92% Calm Calm 13.0 mph20.9 kmh 30.21 in1023.0 mb 0.00 in0.0 mm 0.00 in0.0 mm 0.07 in1.8 mm
11:25 PM 68.5°F20.3°C 66.1°F18.9°C 92% 6.0 mph E9.7 kmh E 13.0 mph20.9 kmh 30.20 in1022.7 mb 0.00 in0.0 mm 0.00 in0.0 mm 0.07 in1.8 mm
11:30 PM 68.5°F20.3°C 65.8°F18.8°C 91% Calm Calm 13.0 mph20.9 kmh 30.20 in1022.7 mb 0.00 in0.0 mm 0.00 in0.0 mm 0.07 in1.8 mm
11:35 PM 68.4°F20.2°C 66.0°F18.9°C 92% Calm Calm 13.0 mph20.9 kmh 30.20 in1022.7 mb 0.00 in0.0 mm 0.00 in0.0 mm 0.07 in1.8 mm
11:40 PM 68.4°F20.2°C 66.0°F18.9°C 92% 11.0 mph E17.7 kmh E 13.0 mph20.9 kmh 30.19 in1022.4 mb 0.00 in0.0 mm 0.00 in0.0 mm 0.07 in1.8 mm
11:45 PM 68.4°F20.2°C 66.0°F18.9°C 92% 6.0 mph ESE9.7 kmh ESE 13.0 mph20.9 kmh 30.19 in1022.4 mb 0.00 in0.0 mm 0.00 in0.0 mm 0.07 in1.8 mm
11:50 PM 68.4°F20.2°C 66.0°F18.9°C 92% 3.0 mph SE4.8 kmh SE 13.0 mph20.9 kmh 30.18 in1022.0 mb 0.00 in0.0 mm 0.00 in0.0 mm 0.07 in1.8 mm
11:55 PM 68.4°F20.2°C 66.0°F18.9°C 92% 2.0 mph ESE3.2 kmh ESE 13.0 mph20.9 kmh 30.18 in1022.0 mb 0.00 in0.0 mm 0.00 in0.0 mm 0.07 in1.8 mm